Time;durP1;ratioP1;P1;durP2;ratioP2;P2;SDS_P1;SDS_P2;PMS_P1;PMS_P2;Temp;Humidity;BMP_temperature;BMP_pressure;BME280_temperature;BME280_humidity;BME280_pressure;Samples;Min_cycle;Max_cycle;Signal;HPM_P1;HPM_P2
2023/06/26 00:01:59;;;;;;;9.18;4.18;;;;;;;;;;5074193;28;20048;-69
2023/06/26 00:04:27;;;;;;;8.95;4.72;;;;;;;;;;5082871;28;20246;-65
2023/06/26 00:06:55;;;;;;;8.65;4.75;;;;;;;;;;5081016;28;20052;-75
2023/06/26 00:09:25;;;;;;;7.85;4.07;;;;;;;;;;5079717;28;20044;-66
2023/06/26 00:11:54;;;;;;;7.45;4.10;;;;;;;;;;5081823;28;20056;-71
2023/06/26 00:14:22;;;;;;;7.70;3.97;;;;;;;;;;5082166;28;20036;-66
2023/06/26 00:16:51;;;;;;;9.43;4.38;;;;;;;;;;5080401;28;20713;-70
2023/06/26 00:19:19;;;;;;;7.57;4.25;;;;;;;;;;5079599;28;20048;-65
2023/06/26 00:21:48;;;;;;;7.05;3.60;;;;;;;;;;5080531;28;20134;-65
2023/06/26 00:24:16;;;;;;;8.98;4.05;;;;;;;;;;5076705;28;20048;-66
2023/06/26 00:26:48;;;;;;;8.77;4.47;;;;;;;;;;5083007;28;20137;-65
2023/06/26 00:29:16;;;;;;;10.13;4.80;;;;;;;;;;5081175;28;20040;-67
2023/06/26 00:31:45;;;;;;;8.50;4.45;;;;;;;;;;5076765;28;20263;-67
2023/06/26 00:34:14;;;;;;;9.57;4.40;;;;;;;;;;5077224;28;20044;-68
2023/06/26 00:36:43;;;;;;;8.55;3.97;;;;;;;;;;5079755;28;20056;-71
2023/06/26 00:39:12;;;;;;;7.45;3.88;;;;;;;;;;5078300;28;20055;-68
2023/06/26 00:41:41;;;;;;;8.98;4.50;;;;;;;;;;5077171;28;20662;-68
2023/06/26 00:44:10;;;;;;;7.70;4.18;;;;;;;;;;5080812;28;20044;-68
2023/06/26 00:46:39;;;;;;;10.68;5.10;;;;;;;;;;5076263;28;20056;-65
2023/06/26 00:49:07;;;;;;;9.93;4.55;;;;;;;;;;5074916;28;20095;-67
2023/06/26 00:51:36;;;;;;;9.85;4.50;;;;;;;;;;5081678;28;20047;-66
2023/06/26 00:54:04;;;;;;;9.52;4.38;;;;;;;;;;5077269;28;20577;-66
2023/06/26 00:56:33;;;;;;;9.45;4.43;;;;;;;;;;5080109;28;20526;-75
2023/06/26 00:59:01;;;;;;;9.30;4.57;;;;;;;;;;5080046;28;20079;-68
2023/06/26 01:01:31;;;;;;;8.68;4.13;;;;;;;;;;5081182;28;20054;-66
2023/06/26 01:03:59;;;;;;;7.85;4.30;;;;;;;;;;5087970;22;20535;-65
2023/06/26 01:06:31;;;;;;;7.82;4.30;;;;;;;;;;5054591;28;20081;-65
2023/06/26 01:09:00;;;;;;;9.55;4.45;;;;;;;;;;5057174;28;20472;-65
2023/06/26 01:11:28;;;;;;;7.63;4.22;;;;;;;;;;5054237;28;20078;-64
2023/06/26 01:13:58;;;;;;;10.48;5.30;;;;;;;;;;5057409;28;20036;-65
2023/06/26 01:16:27;;;;;;;8.07;4.22;;;;;;;;;;5054827;28;20056;-64
2023/06/26 01:18:57;;;;;;;8.70;4.22;;;;;;;;;;5057583;28;20121;-64
2023/06/26 01:21:32;;;;;;;8.35;4.40;;;;;;;;;;5058834;28;20086;-65
2023/06/26 01:24:06;;;;;;;11.13;4.65;;;;;;;;;;5055903;28;20051;-65
2023/06/26 01:26:36;;;;;;;9.77;4.45;;;;;;;;;;5056025;28;20051;-65
2023/06/26 01:29:07;;;;;;;9.25;4.88;;;;;;;;;;5055097;28;20045;-64
2023/06/26 01:31:37;;;;;;;8.63;4.55;;;;;;;;;;5055788;28;20083;-65
2023/06/26 01:34:05;;;;;;;10.32;4.60;;;;;;;;;;5052778;28;20037;-65
2023/06/26 01:36:34;;;;;;;7.65;4.38;;;;;;;;;;5055049;28;20076;-64
2023/06/26 01:39:02;;;;;;;7.78;4.25;;;;;;;;;;5057909;28;20079;-65
2023/06/26 01:41:30;;;;;;;8.80;4.80;;;;;;;;;;5057369;28;20049;-65
2023/06/26 01:44:05;;;;;;;6.75;4.10;;;;;;;;;;5053006;28;20053;-65
2023/06/26 01:46:36;;;;;;;8.27;5.00;;;;;;;;;;5059073;28;20100;-65
2023/06/26 01:49:08;;;;;;;7.90;4.38;;;;;;;;;;5056737;28;20086;-64
2023/06/26 01:51:39;;;;;;;11.77;4.22;;;;;;;;;;5055225;28;20048;-64
2023/06/26 01:54:09;;;;;;;7.57;3.90;;;;;;;;;;5056196;28;20032;-64
2023/06/26 01:56:40;;;;;;;8.60;5.05;;;;;;;;;;5055729;28;20036;-64
2023/06/26 01:59:10;;;;;;;9.48;4.43;;;;;;;;;;5055441;28;20037;-64
2023/06/26 02:01:39;;;;;;;8.70;4.18;;;;;;;;;;5057995;28;20071;-65
2023/06/26 02:04:07;;;;;;;9.95;4.22;;;;;;;;;;5056609;28;20472;-65
2023/06/26 02:06:38;;;;;;;6.32;4.03;;;;;;;;;;5051860;28;20489;-65
2023/06/26 02:09:07;;;;;;;9.32;4.22;;;;;;;;;;5054847;28;20146;-65
2023/06/26 02:11:36;;;;;;;9.35;4.32;;;;;;;;;;5057983;28;20083;-65
2023/06/26 02:14:04;;;;;;;7.82;4.50;;;;;;;;;;5057132;28;20121;-65
2023/06/26 02:16:34;;;;;;;8.63;4.45;;;;;;;;;;5056461;28;20094;-65
2023/06/26 02:19:02;;;;;;;7.72;4.00;;;;;;;;;;5050597;28;20731;-64
2023/06/26 02:21:30;;;;;;;7.90;4.25;;;;;;;;;;5053827;28;20055;-65
2023/06/26 02:23:59;;;;;;;7.65;4.20;;;;;;;;;;5056292;28;20147;-64
2023/06/26 02:26:27;;;;;;;7.72;4.15;;;;;;;;;;5053857;28;20705;-65
2023/06/26 02:28:56;;;;;;;11.82;4.43;;;;;;;;;;5056247;28;20040;-65
2023/06/26 02:31:24;;;;;;;7.30;4.38;;;;;;;;;;5055676;28;20414;-65
2023/06/26 02:33:54;;;;;;;10.10;4.45;;;;;;;;;;5047775;28;20395;-65
2023/06/26 02:36:22;;;;;;;8.23;4.72;;;;;;;;;;5052501;28;20328;-65
2023/06/26 02:38:51;;;;;;;11.77;5.53;;;;;;;;;;5053051;28;20126;-65
2023/06/26 02:41:19;;;;;;;9.32;4.47;;;;;;;;;;5057532;28;20048;-65
2023/06/26 02:43:47;;;;;;;8.15;4.13;;;;;;;;;;5053081;28;20502;-65
2023/06/26 02:46:16;;;;;;;8.63;4.28;;;;;;;;;;5054568;28;20073;-65
2023/06/26 02:48:44;;;;;;;9.23;4.47;;;;;;;;;;5057428;28;20051;-65
2023/06/26 02:51:14;;;;;;;10.45;4.70;;;;;;;;;;5058044;28;20045;-65
2023/06/26 02:53:43;;;;;;;8.93;4.50;;;;;;;;;;5058401;28;20513;-65
2023/06/26 02:56:12;;;;;;;10.68;4.70;;;;;;;;;;5055941;28;20127;-65
2023/06/26 02:58:41;;;;;;;11.20;5.03;;;;;;;;;;5058240;28;20477;-66
2023/06/26 03:01:09;;;;;;;8.60;4.78;;;;;;;;;;5055893;28;20055;-65
2023/06/26 03:03:41;;;;;;;6.97;4.57;;;;;;;;;;5055140;28;20049;-65
2023/06/26 03:06:09;;;;;;;9.20;4.85;;;;;;;;;;5056438;28;20051;-66
2023/06/26 03:08:39;;;;;;;7.25;3.85;;;;;;;;;;5055983;28;20040;-65
2023/06/26 03:11:08;;;;;;;9.30;4.20;;;;;;;;;;5054866;28;20043;-65
2023/06/26 03:13:36;;;;;;;10.60;5.22;;;;;;;;;;5056008;28;20068;-65
2023/06/26 03:16:05;;;;;;;11.30;4.78;;;;;;;;;;5056912;28;20076;-65
2023/06/26 03:18:33;;;;;;;8.43;4.40;;;;;;;;;;5052169;28;20041;-65
2023/06/26 03:21:02;;;;;;;8.73;4.15;;;;;;;;;;5054579;28;20048;-65
2023/06/26 03:23:30;;;;;;;8.45;4.45;;;;;;;;;;5053402;28;20090;-66
2023/06/26 03:26:00;;;;;;;10.90;4.82;;;;;;;;;;5052650;28;20076;-65
2023/06/26 03:28:30;;;;;;;8.40;4.65;;;;;;;;;;5055899;28;20044;-65
2023/06/26 03:30:59;;;;;;;8.85;4.38;;;;;;;;;;5053889;28;20094;-65
2023/06/26 03:33:27;;;;;;;7.63;4.00;;;;;;;;;;5054336;28;20048;-65
2023/06/26 03:35:56;;;;;;;8.55;4.30;;;;;;;;;;5050644;28;20068;-65
2023/06/26 03:38:25;;;;;;;8.90;4.22;;;;;;;;;;5053872;28;20179;-65
2023/06/26 03:40:54;;;;;;;8.63;3.88;;;;;;;;;;5057039;28;20045;-65
2023/06/26 03:43:23;;;;;;;7.78;4.15;;;;;;;;;;5054958;28;20457;-65
2023/06/26 03:45:52;;;;;;;7.50;4.03;;;;;;;;;;5052208;28;20567;-65
2023/06/26 03:48:20;;;;;;;11.00;5.03;;;;;;;;;;5057741;28;20055;-65
2023/06/26 03:50:49;;;;;;;8.73;4.00;;;;;;;;;;5059724;28;20057;-65
2023/06/26 03:53:17;;;;;;;9.88;4.90;;;;;;;;;;5057925;28;20453;-64
2023/06/26 03:55:45;;;;;;;10.50;5.15;;;;;;;;;;5056780;28;20068;-65
2023/06/26 03:58:14;;;;;;;11.75;4.45;;;;;;;;;;5058432;28;20099;-65
2023/06/26 04:00:43;;;;;;;11.60;4.88;;;;;;;;;;5055238;28;20476;-65
2023/06/26 04:03:12;;;;;;;8.85;4.65;;;;;;;;;;5054872;28;20265;-65
2023/06/26 04:05:40;;;;;;;9.02;4.60;;;;;;;;;;5049891;28;20126;-65
2023/06/26 04:08:09;;;;;;;11.82;4.70;;;;;;;;;;5053051;28;20401;-65
2023/06/26 04:10:37;;;;;;;9.48;4.93;;;;;;;;;;5052945;28;20499;-65
2023/06/26 04:13:06;;;;;;;10.85;5.68;;;;;;;;;;5057396;28;20110;-65
2023/06/26 04:15:34;;;;;;;10.38;4.32;;;;;;;;;;5059232;28;20094;-65
2023/06/26 04:18:04;;;;;;;9.52;4.63;;;;;;;;;;5056918;28;20052;-65
2023/06/26 04:20:34;;;;;;;11.93;5.07;;;;;;;;;;5056655;28;20041;-65
2023/06/26 04:23:03;;;;;;;15.27;6.00;;;;;;;;;;5058164;28;20417;-65
2023/06/26 04:25:32;;;;;;;12.98;5.28;;;;;;;;;;5056272;28;20159;-65
2023/06/26 04:28:00;;;;;;;8.60;4.60;;;;;;;;;;5054671;28;20040;-65
2023/06/26 04:30:29;;;;;;;12.80;5.03;;;;;;;;;;5057867;28;20053;-65
2023/06/26 04:32:58;;;;;;;11.73;5.43;;;;;;;;;;5054853;28;20074;-65
2023/06/26 04:35:28;;;;;;;8.70;4.05;;;;;;;;;;5054595;28;20053;-65
2023/06/26 04:37:57;;;;;;;8.13;4.13;;;;;;;;;;5059840;28;20060;-66
2023/06/26 04:40:25;;;;;;;10.13;4.40;;;;;;;;;;5061258;28;20493;-65
2023/06/26 04:42:53;;;;;;;11.35;4.78;;;;;;;;;;5054421;28;20547;-66
2023/06/26 04:45:22;;;;;;;9.95;4.55;;;;;;;;;;5058104;28;20366;-65
2023/06/26 04:47:50;;;;;;;8.30;4.57;;;;;;;;;;5060606;28;20061;-65
2023/06/26 04:50:19;;;;;;;9.10;5.00;;;;;;;;;;5054364;28;20143;-65
2023/06/26 04:52:49;;;;;;;9.73;4.57;;;;;;;;;;5056228;28;20040;-65
2023/06/26 04:55:17;;;;;;;9.75;5.05;;;;;;;;;;5059143;28;20086;-65
2023/06/26 04:57:45;;;;;;;10.15;4.90;;;;;;;;;;5055317;28;20450;-66
2023/06/26 05:00:15;;;;;;;7.10;4.28;;;;;;;;;;5058524;28;20048;-65
2023/06/26 05:02:43;;;;;;;7.28;4.25;;;;;;;;;;5053790;28;20113;-65
2023/06/26 05:05:12;;;;;;;6.50;4.00;;;;;;;;;;5058125;28;20106;-66
2023/06/26 05:07:40;;;;;;;7.95;4.10;;;;;;;;;;5053861;28;20127;-65
2023/06/26 05:10:10;;;;;;;14.40;5.40;;;;;;;;;;5057036;28;20044;-66
2023/06/26 05:12:38;;;;;;;10.48;4.30;;;;;;;;;;5059728;28;20068;-65
2023/06/26 05:15:07;;;;;;;10.02;4.40;;;;;;;;;;5055052;28;20056;-65
2023/06/26 05:17:35;;;;;;;9.02;4.88;;;;;;;;;;5053715;28;20141;-66
2023/06/26 05:20:05;;;;;;;12.18;6.40;;;;;;;;;;5055268;28;20218;-65
2023/06/26 05:22:35;;;;;;;12.57;5.40;;;;;;;;;;5055584;28;20488;-66
2023/06/26 05:25:04;;;;;;;10.35;5.13;;;;;;;;;;5055278;28;20101;-65
2023/06/26 05:27:34;;;;;;;8.90;4.40;;;;;;;;;;5055743;28;20106;-66
2023/06/26 05:30:03;;;;;;;11.50;5.45;;;;;;;;;;5057335;28;20083;-66
2023/06/26 05:32:32;;;;;;;13.10;5.50;;;;;;;;;;5056182;28;20545;-66
2023/06/26 05:35:02;;;;;;;13.45;5.20;;;;;;;;;;5055801;28;20041;-66
2023/06/26 05:37:31;;;;;;;10.23;5.05;;;;;;;;;;5057035;28;20123;-66
2023/06/26 05:39:59;;;;;;;8.63;4.45;;;;;;;;;;5055960;28;20117;-67
2023/06/26 05:42:28;;;;;;;10.48;4.60;;;;;;;;;;5055856;28;20546;-67
2023/06/26 05:44:58;;;;;;;10.80;4.80;;;;;;;;;;5056087;28;20098;-69
2023/06/26 05:47:26;;;;;;;13.57;5.22;;;;;;;;;;5059747;28;20123;-67
2023/06/26 05:49:55;;;;;;;11.40;4.78;;;;;;;;;;5058678;28;20052;-67
2023/06/26 05:52:24;;;;;;;9.88;4.50;;;;;;;;;;5056982;28;20151;-67
2023/06/26 05:54:53;;;;;;;8.98;4.80;;;;;;;;;;5055962;28;20137;-67
2023/06/26 05:57:21;;;;;;;7.15;3.95;;;;;;;;;;5055823;28;20079;-67
2023/06/26 05:59:50;;;;;;;9.60;4.55;;;;;;;;;;5052303;28;20121;-66
2023/06/26 06:02:19;;;;;;;9.38;4.15;;;;;;;;;;5050619;28;20485;-65
2023/06/26 06:04:48;;;;;;;10.88;4.25;;;;;;;;;;5056037;28;20153;-65
2023/06/26 06:07:16;;;;;;;8.20;3.97;;;;;;;;;;5056287;28;20459;-66
2023/06/26 06:09:45;;;;;;;9.60;4.53;;;;;;;;;;5052005;28;20048;-65
2023/06/26 06:12:13;;;;;;;9.95;4.82;;;;;;;;;;5056033;28;20098;-65
2023/06/26 06:14:41;;;;;;;8.32;4.15;;;;;;;;;;5056284;28;20117;-66
2023/06/26 06:17:10;;;;;;;11.13;4.60;;;;;;;;;;5055111;28;20114;-65
2023/06/26 06:19:40;;;;;;;9.30;4.57;;;;;;;;;;5055305;28;20430;-66
2023/06/26 06:22:08;;;;;;;7.65;4.30;;;;;;;;;;5053317;28;20118;-66
2023/06/26 06:24:38;;;;;;;10.43;5.05;;;;;;;;;;5056226;28;20068;-66
2023/06/26 06:27:06;;;;;;;14.32;4.60;;;;;;;;;;5053092;28;20131;-66
2023/06/26 06:29:35;;;;;;;8.57;4.55;;;;;;;;;;5054336;28;20052;-65
2023/06/26 06:32:03;;;;;;;10.20;4.30;;;;;;;;;;5053269;28;20086;-65
2023/06/26 06:34:31;;;;;;;8.05;4.30;;;;;;;;;;5049067;28;20076;-66
2023/06/26 06:37:01;;;;;;;8.45;3.65;;;;;;;;;;5056027;28;20087;-66
2023/06/26 06:39:30;;;;;;;10.13;4.80;;;;;;;;;;5054927;28;20125;-65
2023/06/26 06:41:58;;;;;;;11.20;4.93;;;;;;;;;;5054922;28;20063;-65
2023/06/26 06:44:27;;;;;;;7.15;4.38;;;;;;;;;;5052078;28;20040;-66
2023/06/26 06:46:55;;;;;;;10.57;4.18;;;;;;;;;;5052388;28;20136;-65
2023/06/26 06:49:23;;;;;;;8.05;4.15;;;;;;;;;;5051902;28;20040;-66
2023/06/26 06:51:52;;;;;;;8.88;4.32;;;;;;;;;;5053340;28;20041;-67
2023/06/26 06:54:22;;;;;;;9.30;4.55;;;;;;;;;;5053230;28;20056;-67
2023/06/26 06:56:50;;;;;;;8.27;4.38;;;;;;;;;;5055468;28;20086;-66
2023/06/26 06:59:18;;;;;;;10.63;4.72;;;;;;;;;;5055716;28;20090;-66
2023/06/26 07:01:47;;;;;;;6.60;4.03;;;;;;;;;;5058648;28;20489;-66
2023/06/26 07:04:15;;;;;;;8.40;4.35;;;;;;;;;;5056143;28;20135;-66
2023/06/26 07:06:43;;;;;;;8.25;4.28;;;;;;;;;;5051984;28;20422;-67
2023/06/26 07:09:12;;;;;;;8.40;3.85;;;;;;;;;;5052851;28;20052;-65
2023/06/26 07:11:42;;;;;;;9.38;4.03;;;;;;;;;;5052444;28;20068;-65
2023/06/26 07:14:10;;;;;;;7.78;4.30;;;;;;;;;;5054990;28;20423;-66
2023/06/26 07:16:38;;;;;;;7.90;4.32;;;;;;;;;;5053920;28;20444;-66
2023/06/26 07:19:07;;;;;;;10.75;4.75;;;;;;;;;;5054109;28;21004;-67
2023/06/26 07:21:35;;;;;;;6.50;3.70;;;;;;;;;;5060642;28;20057;-67
2023/06/26 07:24:04;;;;;;;9.05;3.53;;;;;;;;;;5060233;28;20052;-67
2023/06/26 07:26:32;;;;;;;7.95;3.40;;;;;;;;;;5053833;28;20635;-65
2023/06/26 07:29:14;;;;;;;5.80;3.78;;;;;;;;;;5060411;28;20123;-66
2023/06/26 07:31:42;;;;;;;6.93;3.67;;;;;;;;;;5061157;28;20084;-67
2023/06/26 07:34:11;;;;;;;6.03;3.58;;;;;;;;;;5058471;28;20052;-66
2023/06/26 07:36:39;;;;;;;7.82;3.75;;;;;;;;;;5052000;28;20143;-66
2023/06/26 07:39:07;;;;;;;8.50;4.03;;;;;;;;;;5060751;28;20044;-66
2023/06/26 07:41:40;;;;;;;7.20;4.03;;;;;;;;;;5061061;28;20064;-65
2023/06/26 07:44:08;;;;;;;9.20;3.80;;;;;;;;;;5060944;28;20102;-64
2023/06/26 07:46:39;;;;;;;6.75;3.65;;;;;;;;;;5054711;28;20071;-65
2023/06/26 07:49:07;;;;;;;7.65;4.30;;;;;;;;;;5059317;28;20112;-65
2023/06/26 07:51:35;;;;;;;7.32;4.25;;;;;;;;;;5058714;28;20127;-65
2023/06/26 07:54:04;;;;;;;7.38;3.78;;;;;;;;;;5057195;28;20137;-65
2023/06/26 07:56:32;;;;;;;6.55;3.80;;;;;;;;;;5061294;28;20057;-65
2023/06/26 07:59:04;;;;;;;8.00;3.85;;;;;;;;;;5063033;28;20063;-65
2023/06/26 08:01:32;;;;;;;8.10;4.20;;;;;;;;;;5060320;28;20815;-65
2023/06/26 08:04:02;;;;;;;7.60;3.97;;;;;;;;;;5061228;28;20067;-67
2023/06/26 08:06:31;;;;;;;6.07;3.70;;;;;;;;;;5058404;28;20072;-65
2023/06/26 08:09:00;;;;;;;7.85;4.05;;;;;;;;;;5060921;28;20201;-66
2023/06/26 08:11:28;;;;;;;5.97;3.80;;;;;;;;;;5058235;28;20137;-66
2023/06/26 08:13:57;;;;;;;6.22;3.65;;;;;;;;;;5058860;28;20087;-65
2023/06/26 08:16:25;;;;;;;8.07;4.32;;;;;;;;;;5063494;28;20456;-63
2023/06/26 08:18:54;;;;;;;7.70;4.43;;;;;;;;;;5060394;28;20076;-66
2023/06/26 08:21:23;;;;;;;6.93;3.85;;;;;;;;;;5055884;28;20040;-65
2023/06/26 08:23:52;;;;;;;7.35;4.07;;;;;;;;;;5059139;28;20067;-66
2023/06/26 08:26:20;;;;;;;6.25;4.05;;;;;;;;;;5058054;28;20040;-65
2023/06/26 08:28:49;;;;;;;7.18;4.32;;;;;;;;;;5055379;28;20109;-66
2023/06/26 08:31:18;;;;;;;8.60;4.43;;;;;;;;;;5059280;28;20095;-65
2023/06/26 08:33:46;;;;;;;7.50;4.20;;;;;;;;;;5044091;28;20048;-66
2023/06/26 08:36:15;;;;;;;6.45;4.20;;;;;;;;;;5059938;28;20044;-65
2023/06/26 08:38:45;;;;;;;8.98;4.22;;;;;;;;;;5059790;28;20543;-66
2023/06/26 08:41:13;;;;;;;7.72;4.00;;;;;;;;;;5059766;28;20559;-66
2023/06/26 08:43:42;;;;;;;8.38;4.47;;;;;;;;;;5057522;28;20489;-66
2023/06/26 08:46:10;;;;;;;8.57;4.50;;;;;;;;;;5060384;28;20090;-65
2023/06/26 08:48:43;;;;;;;11.05;4.65;;;;;;;;;;5058807;28;20049;-66
2023/06/26 08:51:14;;;;;;;6.70;4.43;;;;;;;;;;5059666;28;20052;-65
2023/06/26 08:53:50;;;;;;;6.05;3.90;;;;;;;;;;5059378;28;20161;-65
2023/06/26 08:56:21;;;;;;;5.57;3.75;;;;;;;;;;5059459;28;20098;-66
2023/06/26 08:58:50;;;;;;;8.23;4.03;;;;;;;;;;5061581;28;20126;-65
2023/06/26 09:01:19;;;;;;;6.47;3.58;;;;;;;;;;5057903;28;20125;-65
2023/06/26 09:03:47;;;;;;;6.13;3.63;;;;;;;;;;5058693;28;20060;-64
2023/06/26 09:06:18;;;;;;;7.00;4.35;;;;;;;;;;5057763;28;20052;-66
2023/06/26 09:08:47;;;;;;;6.47;3.83;;;;;;;;;;5058694;28;20036;-66
2023/06/26 09:11:16;;;;;;;7.28;3.65;;;;;;;;;;5056450;28;20412;-65
2023/06/26 09:13:45;;;;;;;7.70;3.30;;;;;;;;;;5059931;28;20049;-65
2023/06/26 09:16:13;;;;;;;6.40;3.38;;;;;;;;;;5058723;28;20151;-64
2023/06/26 09:18:42;;;;;;;5.63;3.75;;;;;;;;;;5059386;28;20079;-66
2023/06/26 09:21:11;;;;;;;6.47;3.75;;;;;;;;;;5060266;28;20493;-66
2023/06/26 09:23:41;;;;;;;7.50;3.58;;;;;;;;;;5055638;28;20045;-64
2023/06/26 09:26:11;;;;;;;6.72;4.00;;;;;;;;;;5057578;28;20064;-65
2023/06/26 09:28:39;;;;;;;5.82;3.88;;;;;;;;;;5057459;28;20041;-65
2023/06/26 09:31:10;;;;;;;8.73;3.80;;;;;;;;;;5057275;28;20052;-64
2023/06/26 09:33:39;;;;;;;5.50;3.65;;;;;;;;;;5057610;28;20068;-65
2023/06/26 09:36:09;;;;;;;6.25;3.53;;;;;;;;;;5059911;28;20060;-65
2023/06/26 09:38:38;;;;;;;5.43;3.08;;;;;;;;;;5056155;28;20595;-64
2023/06/26 09:41:06;;;;;;;6.50;3.40;;;;;;;;;;5056763;28;20587;-66
2023/06/26 09:43:36;;;;;;;4.30;3.20;;;;;;;;;;5055828;28;20409;-66
2023/06/26 09:46:07;;;;;;;6.25;3.60;;;;;;;;;;5054425;28;20052;-66
2023/06/26 09:48:36;;;;;;;8.27;3.53;;;;;;;;;;5055945;28;20512;-66
2023/06/26 09:51:04;;;;;;;12.40;3.67;;;;;;;;;;5054871;28;20048;-66
2023/06/26 09:53:40;;;;;;;6.53;3.65;;;;;;;;;;5057051;28;20048;-66
2023/06/26 09:56:09;;;;;;;5.28;3.35;;;;;;;;;;5056159;28;20044;-66
2023/06/26 09:58:39;;;;;;;5.10;3.65;;;;;;;;;;5058574;28;20083;-66
2023/06/26 10:01:09;;;;;;;5.15;3.00;;;;;;;;;;5054690;28;20068;-66
2023/06/26 10:03:38;;;;;;;6.07;3.05;;;;;;;;;;5058666;28;20131;-66
2023/06/26 10:06:07;;;;;;;5.25;3.08;;;;;;;;;;5056556;28;20041;-66
2023/06/26 10:08:36;;;;;;;5.88;3.13;;;;;;;;;;5052042;28;20071;-66
2023/06/26 10:11:04;;;;;;;5.32;3.15;;;;;;;;;;5056902;28;20068;-66
2023/06/26 10:13:35;;;;;;;4.32;2.90;;;;;;;;;;5058212;28;20401;-66
2023/06/26 10:16:07;;;;;;;5.03;3.20;;;;;;;;;;5054782;28;20074;-66
2023/06/26 10:18:37;;;;;;;5.82;3.10;;;;;;;;;;5052089;28;20052;-66
2023/06/26 10:21:07;;;;;;;6.40;3.38;;;;;;;;;;5058089;28;20044;-65
2023/06/26 10:23:36;;;;;;;5.85;2.92;;;;;;;;;;5056994;28;20075;-66
2023/06/26 10:26:05;;;;;;;3.97;2.95;;;;;;;;;;5055827;28;20084;-66
2023/06/26 10:28:34;;;;;;;5.40;3.28;;;;;;;;;;5060060;28;20460;-66
2023/06/26 10:31:05;;;;;;;8.90;2.80;;;;;;;;;;5060147;28;20044;-66
2023/06/26 10:33:34;;;;;;;3.78;2.60;;;;;;;;;;5058204;28;21536;-66
2023/06/26 10:36:16;;;;;;;6.72;2.90;;;;;;;;;;5053932;28;20060;-65
2023/06/26 10:38:51;;;;;;;4.55;3.05;;;;;;;;;;5056446;28;20071;-65
2023/06/26 10:41:22;;;;;;;5.25;3.38;;;;;;;;;;5058550;28;20052;-67
2023/06/26 10:43:51;;;;;;;5.47;3.53;;;;;;;;;;5059104;28;20106;-66
2023/06/26 10:46:23;;;;;;;5.88;2.95;;;;;;;;;;5058327;28;20078;-66
2023/06/26 10:49:01;;;;;;;9.68;3.72;;;;;;;;;;5058083;28;20052;-65
2023/06/26 10:51:30;;;;;;;4.85;2.92;;;;;;;;;;5056542;28;20597;-66
2023/06/26 10:53:58;;;;;;;3.88;2.58;;;;;;;;;;5056733;28;20101;-67
2023/06/26 10:56:44;;;;;;;7.13;3.03;;;;;;;;;;5060978;28;20048;-68
2023/06/26 10:59:15;;;;;;;4.45;3.10;;;;;;;;;;5061518;28;20052;-65
2023/06/26 11:01:46;;;;;;;4.05;2.72;;;;;;;;;;5059175;28;20419;-66
2023/06/26 11:04:16;;;;;;;4.45;3.00;;;;;;;;;;5060411;28;20165;-66
2023/06/26 11:06:48;;;;;;;4.28;2.72;;;;;;;;;;5057204;28;20072;-65
2023/06/26 11:09:19;;;;;;;4.63;2.92;;;;;;;;;;5061134;28;20047;-66
2023/06/26 11:11:59;;;;;;;4.93;2.95;;;;;;;;;;5060218;28;20048;-64
2023/06/26 11:14:28;;;;;;;6.88;3.13;;;;;;;;;;5061561;28;20496;-66
2023/06/26 11:17:01;;;;;;;8.38;3.40;;;;;;;;;;5062406;28;20708;-67
2023/06/26 11:19:29;;;;;;;4.78;3.20;;;;;;;;;;5056461;28;20068;-65
2023/06/26 11:22:01;;;;;;;8.00;3.20;;;;;;;;;;5063052;28;20043;-66
2023/06/26 11:24:32;;;;;;;5.50;2.83;;;;;;;;;;5059005;28;20076;-66
2023/06/26 11:27:04;;;;;;;5.03;3.05;;;;;;;;;;5055942;28;20493;-68
2023/06/26 11:29:33;;;;;;;4.93;3.30;;;;;;;;;;5058417;28;20057;-65
2023/06/26 11:32:06;;;;;;;7.20;3.50;;;;;;;;;;5055914;28;20513;-65
2023/06/26 11:34:35;;;;;;;5.20;3.40;;;;;;;;;;5053919;28;20040;-68
2023/06/26 11:37:04;;;;;;;3.65;2.83;;;;;;;;;;5058436;28;20076;-65
2023/06/26 11:39:32;;;;;;;5.95;3.40;;;;;;;;;;5060861;28;20417;-64
2023/06/26 11:42:01;;;;;;;6.32;3.30;;;;;;;;;;5062511;28;20378;-65
2023/06/26 11:44:33;;;;;;;6.13;3.40;;;;;;;;;;5057636;28;20056;-65
2023/06/26 11:47:01;;;;;;;4.35;3.35;;;;;;;;;;5060877;28;20079;-65
2023/06/26 11:49:31;;;;;;;6.05;3.65;;;;;;;;;;5059202;28;20040;-65
2023/06/26 11:51:59;;;;;;;4.13;3.20;;;;;;;;;;5061247;28;20558;-65
2023/06/26 11:54:28;;;;;;;8.50;3.53;;;;;;;;;;5059842;28;20475;-67
2023/06/26 11:56:58;;;;;;;5.43;3.42;;;;;;;;;;5056723;28;20102;-66
2023/06/26 11:59:33;;;;;;;5.80;3.42;;;;;;;;;;5059466;28;20807;-66
2023/06/26 12:02:02;;;;;;;5.18;3.58;;;;;;;;;;5062071;28;20059;-64
2023/06/26 12:04:32;;;;;;;5.93;3.75;;;;;;;;;;5056598;28;20041;-66
2023/06/26 12:07:03;;;;;;;7.18;3.85;;;;;;;;;;5054553;28;20048;-64
2023/06/26 12:09:34;;;;;;;5.80;3.72;;;;;;;;;;5060996;28;20144;-65
2023/06/26 12:12:02;;;;;;;8.63;3.58;;;;;;;;;;5059357;28;20063;-65
2023/06/26 12:14:32;;;;;;;5.22;3.55;;;;;;;;;;5058449;28;20596;-66
2023/06/26 12:17:05;;;;;;;4.90;3.42;;;;;;;;;;5058206;28;20253;-65
2023/06/26 12:19:35;;;;;;;5.40;3.70;;;;;;;;;;5055854;28;20049;-66
2023/06/26 12:22:07;;;;;;;5.95;3.67;;;;;;;;;;5060321;28;20339;-66
2023/06/26 12:24:38;;;;;;;4.70;3.20;;;;;;;;;;5058053;28;20056;-65
2023/06/26 12:27:09;;;;;;;8.18;3.40;;;;;;;;;;5054150;28;20068;-67
2023/06/26 12:29:38;;;;;;;6.38;4.38;;;;;;;;;;5057992;28;20386;-66
2023/06/26 12:32:09;;;;;;;6.43;3.50;;;;;;;;;;5059397;28;20087;-66
2023/06/26 12:34:40;;;;;;;5.80;3.70;;;;;;;;;;5057420;28;21423;-66
2023/06/26 12:37:09;;;;;;;5.43;3.53;;;;;;;;;;5057122;28;20478;-65
2023/06/26 12:39:47;;;;;;;5.45;3.22;;;;;;;;;;5057339;28;20098;-66
2023/06/26 12:42:16;;;;;;;6.30;3.47;;;;;;;;;;5054901;28;20530;-66
2023/06/26 12:44:45;;;;;;;5.63;3.42;;;;;;;;;;5056720;28;20072;-66
2023/06/26 12:47:14;;;;;;;7.25;4.07;;;;;;;;;;5058249;28;20048;-67
2023/06/26 12:49:45;;;;;;;6.65;3.60;;;;;;;;;;5061003;28;20041;-65
2023/06/26 12:52:14;;;;;;;5.35;3.47;;;;;;;;;;5058086;28;20547;-66
2023/06/26 12:54:43;;;;;;;6.57;3.85;;;;;;;;;;5059121;28;20051;-67
2023/06/26 12:57:13;;;;;;;4.93;3.22;;;;;;;;;;5057223;28;20048;-66
2023/06/26 12:59:42;;;;;;;7.70;4.10;;;;;;;;;;5057280;28;20055;-65
2023/06/26 13:02:12;;;;;;;8.82;3.97;;;;;;;;;;5059281;28;20473;-65
2023/06/26 13:04:41;;;;;;;5.45;3.85;;;;;;;;;;5056137;28;20056;-65
2023/06/26 13:07:11;;;;;;;5.53;3.70;;;;;;;;;;5056471;28;20364;-66
2023/06/26 13:09:40;;;;;;;11.27;4.32;;;;;;;;;;5059021;28;20043;-65
2023/06/26 13:12:09;;;;;;;6.63;3.53;;;;;;;;;;5058207;28;20126;-66
2023/06/26 13:14:38;;;;;;;5.90;3.97;;;;;;;;;;5060238;28;20075;-65
2023/06/26 13:17:07;;;;;;;6.95;4.05;;;;;;;;;;5055653;28;20075;-65
2023/06/26 13:19:37;;;;;;;6.07;3.83;;;;;;;;;;5055966;28;20067;-66
2023/06/26 13:22:06;;;;;;;5.07;3.50;;;;;;;;;;5054415;28;20053;-66
2023/06/26 13:24:36;;;;;;;7.05;4.07;;;;;;;;;;5058298;28;20048;-67
2023/06/26 13:27:04;;;;;;;5.15;3.92;;;;;;;;;;5055990;28;20045;-66
2023/06/26 13:29:33;;;;;;;6.53;4.10;;;;;;;;;;5060157;28;20059;-65
2023/06/26 13:32:02;;;;;;;7.53;4.53;;;;;;;;;;5060250;28;20040;-66
2023/06/26 13:34:30;;;;;;;11.10;4.30;;;;;;;;;;5052834;28;20056;-65
2023/06/26 13:36:59;;;;;;;6.90;4.20;;;;;;;;;;5054526;28;20045;-66
2023/06/26 13:39:28;;;;;;;5.78;3.78;;;;;;;;;;5054429;28;20623;-65
2023/06/26 13:41:58;;;;;;;6.57;4.00;;;;;;;;;;5054931;28;20516;-65
2023/06/26 13:44:27;;;;;;;7.80;4.30;;;;;;;;;;5055953;28;20056;-66
2023/06/26 13:47:06;;;;;;;7.30;4.30;;;;;;;;;;5056990;28;20102;-65
2023/06/26 13:49:37;;;;;;;6.03;4.25;;;;;;;;;;5055930;28;21578;-66
2023/06/26 13:52:07;;;;;;;6.70;4.22;;;;;;;;;;5056554;28;20052;-65
2023/06/26 13:54:36;;;;;;;5.32;4.03;;;;;;;;;;5057222;28;20059;-65
2023/06/26 13:57:06;;;;;;;6.00;4.18;;;;;;;;;;5055159;28;20044;-65
2023/06/26 13:59:35;;;;;;;6.70;4.63;;;;;;;;;;5055519;28;20517;-65
2023/06/26 14:02:05;;;;;;;6.40;4.38;;;;;;;;;;5055632;28;20102;-66
2023/06/26 14:04:33;;;;;;;6.00;4.20;;;;;;;;;;5053120;28;20053;-66
2023/06/26 14:07:02;;;;;;;5.10;3.60;;;;;;;;;;5059045;28;20044;-65
2023/06/26 14:09:30;;;;;;;6.15;4.13;;;;;;;;;;5058416;28;20155;-63
2023/06/26 14:11:59;;;;;;;7.78;4.40;;;;;;;;;;5057061;28;20539;-64
2023/06/26 14:14:29;;;;;;;5.68;4.03;;;;;;;;;;5058889;28;20076;-63
2023/06/26 14:16:59;;;;;;;8.23;4.25;;;;;;;;;;5060765;28;20041;-65
2023/06/26 14:19:27;;;;;;;10.43;4.43;;;;;;;;;;5058876;28;20896;-69
2023/06/26 14:21:56;;;;;;;9.95;4.20;;;;;;;;;;5057088;28;20135;-71
2023/06/26 14:24:24;;;;;;;7.63;4.05;;;;;;;;;;5058259;28;20813;-65
2023/06/26 14:26:52;;;;;;;7.90;4.63;;;;;;;;;;5058659;28;20051;-65
2023/06/26 14:29:21;;;;;;;7.72;4.05;;;;;;;;;;5056676;28;20106;-68
2023/06/26 14:31:51;;;;;;;7.15;4.50;;;;;;;;;;5056181;28;20048;-66
2023/06/26 14:34:22;;;;;;;6.65;4.22;;;;;;;;;;5054920;28;20127;-67
2023/06/26 14:36:51;;;;;;;7.60;4.78;;;;;;;;;;5056571;28;20051;-64
2023/06/26 14:39:19;;;;;;;8.18;4.80;;;;;;;;;;5059016;28;20132;-65
2023/06/26 14:41:48;;;;;;;7.07;4.30;;;;;;;;;;5051904;28;20052;-64
2023/06/26 14:44:17;;;;;;;7.28;4.25;;;;;;;;;;5057412;28;20056;-66
2023/06/26 14:46:46;;;;;;;6.35;4.65;;;;;;;;;;5055547;28;20048;-66
2023/06/26 14:49:16;;;;;;;6.93;4.25;;;;;;;;;;5056555;28;20068;-66
2023/06/26 14:51:44;;;;;;;5.60;4.38;;;;;;;;;;5057913;28;20571;-66
2023/06/26 14:54:13;;;;;;;6.25;4.70;;;;;;;;;;5055684;28;20045;-65